createdAt,value
2023-01-19T00:00:28.313Z,-5.14
2023-01-19T00:02:58.399Z,-5.15
2023-01-19T00:05:28.715Z,-5.17
2023-01-19T00:07:56.781Z,-5.21
2023-01-19T00:10:24.983Z,-5.31
2023-01-19T00:12:53.173Z,-5.35
2023-01-19T00:15:22.487Z,-5.33
2023-01-19T00:17:50.648Z,-5.31
2023-01-19T00:20:19.170Z,-5.11
2023-01-19T00:22:50.952Z,-5.11
2023-01-19T00:25:19.055Z,-4.96
2023-01-19T00:27:49.979Z,-4.86
2023-01-19T00:30:18.466Z,-4.91
2023-01-19T00:32:48.046Z,-5.01
2023-01-19T00:35:16.303Z,-5.10
2023-01-19T00:37:46.836Z,-5.04
2023-01-19T00:40:15.144Z,-4.94
2023-01-19T00:42:44.479Z,-4.99
2023-01-19T00:45:14.939Z,-5.01
2023-01-19T00:47:43.304Z,-5.10
2023-01-19T00:50:14.245Z,-5.07
2023-01-19T00:52:43.018Z,-5.10
2023-01-19T00:55:12.960Z,-5.12
2023-01-19T00:57:42.229Z,-5.29
2023-01-19T01:00:13.886Z,-5.05
2023-01-19T01:02:43.903Z,-5.07
2023-01-19T01:05:14.134Z,-5.01
2023-01-19T01:07:45.463Z,-4.91
2023-01-19T01:10:15.847Z,-4.94
2023-01-19T01:12:55.891Z,-4.98
2023-01-19T01:15:29.888Z,-4.75
2023-01-19T01:17:58.166Z,-4.67
2023-01-19T01:20:31.024Z,-4.59
2023-01-19T01:22:59.660Z,-4.45
2023-01-19T01:25:31.041Z,-4.38
2023-01-19T01:28:03.106Z,-4.39
2023-01-19T01:30:31.013Z,-4.31
2023-01-19T01:32:59.633Z,-4.32
2023-01-19T01:35:27.846Z,-4.32
2023-01-19T01:38:00.588Z,-4.39
2023-01-19T01:40:31.135Z,-4.53
2023-01-19T01:42:59.688Z,-4.64
2023-01-19T01:45:33.483Z,-4.69
2023-01-19T01:48:07.435Z,-4.76
2023-01-19T01:50:38.939Z,-4.87
2023-01-19T01:53:13.337Z,-4.87
2023-01-19T01:55:48.127Z,-5.02
2023-01-19T01:58:17.507Z,-4.98
2023-01-19T02:01:03.453Z,-5.01
2023-01-19T02:03:33.092Z,-5.08
2023-01-19T02:06:04.864Z,-5.07
2023-01-19T02:08:56.911Z,-5.09
2023-01-19T02:11:42.418Z,-5.03
2023-01-19T02:14:10.548Z,-4.92
2023-01-19T02:16:39.063Z,-4.63
2023-01-19T02:19:09.865Z,-4.61
2023-01-19T02:21:43.650Z,-4.63
2023-01-19T02:24:13.818Z,-4.51
2023-01-19T02:26:45.316Z,-4.55
2023-01-19T02:29:16.294Z,-4.49
2023-01-19T02:31:45.211Z,-4.35
2023-01-19T02:34:16.613Z,-4.42
2023-01-19T02:36:51.239Z,-4.47
2023-01-19T02:39:24.683Z,-4.53
2023-01-19T02:41:56.096Z,-4.38
2023-01-19T02:44:25.596Z,-4.34
2023-01-19T02:46:55.132Z,-4.34
2023-01-19T02:49:29.359Z,-4.34
2023-01-19T02:51:57.720Z,-4.31
2023-01-19T02:54:47.420Z,-4.44
2023-01-19T02:57:34.617Z,-4.46
2023-01-19T03:00:22.756Z,-4.35
2023-01-19T03:03:03.621Z,-4.23
2023-01-19T03:05:39.417Z,-4.13
2023-01-19T03:08:16.189Z,-4.05
2023-01-19T03:10:55.109Z,-3.97
2023-01-19T03:13:31.071Z,-3.76
2023-01-19T03:16:12.790Z,-3.72
2023-01-19T03:18:43.862Z,-3.68
2023-01-19T03:21:17.358Z,-3.66
2023-01-19T03:23:47.839Z,-3.49
2023-01-19T03:26:20.450Z,-3.53
2023-01-19T03:28:50.750Z,-3.55
2023-01-19T03:31:23.943Z,-3.64
2023-01-19T03:33:56.399Z,-3.51
2023-01-19T03:36:28.445Z,-3.45
2023-01-19T03:41:50.097Z,-3.41
2023-01-19T03:44:18.230Z,-3.35
2023-01-19T03:46:48.886Z,-3.48
2023-01-19T03:49:17.423Z,-3.31
2023-01-19T03:51:46.097Z,-3.25
2023-01-19T03:54:16.311Z,-3.24
2023-01-19T03:56:45.936Z,-3.24
2023-01-19T03:59:17.353Z,-3.22
2023-01-19T04:01:45.745Z,-3.21
2023-01-19T04:04:15.471Z,-3.20
2023-01-19T04:06:46.323Z,-3.17
2023-01-19T04:09:14.358Z,-3.20
2023-01-19T04:11:42.639Z,-3.33
2023-01-19T04:14:11.928Z,-3.45
2023-01-19T04:16:40.114Z,-3.55
2023-01-19T04:19:07.995Z,-3.54
2023-01-19T04:21:36.283Z,-3.60
2023-01-19T04:24:04.469Z,-3.65
2023-01-19T04:26:35.252Z,-3.64
2023-01-19T04:29:03.144Z,-3.58
2023-01-19T04:31:33.125Z,-3.50
2023-01-19T04:34:01.069Z,-3.44
2023-01-19T04:36:31.722Z,-3.51
2023-01-19T04:38:59.627Z,-3.59
2023-01-19T04:41:31.147Z,-3.54
2023-01-19T04:43:59.701Z,-3.42
2023-01-19T04:46:27.712Z,-3.41
2023-01-19T04:48:57.395Z,-3.40
2023-01-19T04:51:28.781Z,-3.37
2023-01-19T04:53:57.897Z,-3.25
2023-01-19T04:56:28.268Z,-3.17
2023-01-19T04:58:56.366Z,-3.08
2023-01-19T05:01:24.733Z,-3.06
2023-01-19T05:03:52.957Z,-3.01
2023-01-19T05:06:24.670Z,-2.95
2023-01-19T05:08:52.998Z,-2.97
2023-01-19T05:11:23.262Z,-3.07
2023-01-19T05:13:51.601Z,-3.21
2023-01-19T05:16:19.705Z,-3.18
2023-01-19T05:18:50.445Z,-3.23
2023-01-19T05:21:18.334Z,-3.30
2023-01-19T05:23:50.355Z,-3.31
2023-01-19T05:26:20.341Z,-3.30
2023-01-19T05:28:48.934Z,-3.31
2023-01-19T05:31:20.239Z,-3.31
2023-01-19T05:33:49.778Z,-3.38
2023-01-19T05:36:17.738Z,-3.39
2023-01-19T05:38:50.233Z,-3.49
2023-01-19T05:41:18.707Z,-3.46
2023-01-19T05:43:46.846Z,-3.42
2023-01-19T05:46:15.417Z,-3.61
2023-01-19T05:48:46.147Z,-3.50
2023-01-19T05:51:15.271Z,-3.57
2023-01-19T05:53:43.427Z,-3.57
2023-01-19T05:56:13.133Z,-3.67
2023-01-19T05:58:41.176Z,-3.62
2023-01-19T06:01:11.232Z,-3.60
2023-01-19T06:03:40.137Z,-3.57
2023-01-19T06:06:10.298Z,-3.53
2023-01-19T06:08:38.182Z,-3.45
2023-01-19T06:11:07.102Z,-3.44
2023-01-19T06:13:36.482Z,-3.42
2023-01-19T06:16:04.797Z,-3.42
2023-01-19T06:18:32.871Z,-3.39
2023-01-19T06:21:04.430Z,-3.35
2023-01-19T06:23:34.005Z,-3.29
2023-01-19T06:26:02.657Z,-3.22
2023-01-19T06:28:30.671Z,-3.20
2023-01-19T06:31:03.841Z,-3.16
2023-01-19T06:33:31.960Z,-3.13
2023-01-19T06:35:59.934Z,-3.13
2023-01-19T06:38:30.232Z,-3.16
2023-01-19T06:40:59.504Z,-3.09
2023-01-19T06:43:27.981Z,-3.10
2023-01-19T06:45:56.352Z,-3.10
2023-01-19T06:48:25.755Z,-3.07
2023-01-19T06:50:53.863Z,-3.07
2023-01-19T06:53:22.542Z,-3.01
2023-01-19T06:55:50.566Z,-3.01
2023-01-19T06:58:18.644Z,-2.94
2023-01-19T07:00:46.709Z,-2.89
2023-01-19T07:03:20.744Z,-2.80
2023-01-19T07:05:52.474Z,-2.70
2023-01-19T07:08:20.650Z,-2.65
2023-01-19T07:11:25.800Z,-2.61
2023-01-19T07:13:40.860Z,-2.56
2023-01-19T07:16:11.684Z,-2.52
2023-01-19T07:18:41.049Z,-2.46
2023-01-19T07:21:12.668Z,-2.38
2023-01-19T07:23:40.778Z,-2.35
2023-01-19T07:26:09.227Z,-2.41
2023-01-19T07:28:37.613Z,-2.42
2023-01-19T07:31:06.247Z,-2.39
2023-01-19T07:33:36.480Z,-2.37
2023-01-19T07:36:08.563Z,-2.39
2023-01-19T07:38:37.975Z,-2.29
2023-01-19T07:41:08.512Z,-2.28
2023-01-19T07:43:36.919Z,-2.29
2023-01-19T07:46:07.770Z,-2.27
2023-01-19T07:48:36.090Z,-2.37
2023-01-19T07:51:10.375Z,-2.25
2023-01-19T07:53:42.371Z,-2.18
2023-01-19T07:56:13.231Z,-2.14
2023-01-19T07:58:41.308Z,-2.08
2023-01-19T08:01:10.186Z,-2.06
2023-01-19T08:03:38.655Z,-2.04
2023-01-19T08:06:07.759Z,-1.97
2023-01-19T08:08:35.887Z,-1.93
2023-01-19T08:11:05.469Z,-1.88
2023-01-19T08:13:33.365Z,-1.89
2023-01-19T08:16:01.520Z,-1.85
2023-01-19T08:18:31.917Z,-1.84
2023-01-19T08:21:02.640Z,-1.83
2023-01-19T08:23:30.754Z,-1.85
2023-01-19T08:25:58.988Z,-1.78
2023-01-19T08:28:28.815Z,-1.72
2023-01-19T08:30:56.853Z,-1.71
2023-01-19T08:33:25.981Z,-1.59
2023-01-19T08:35:56.410Z,-1.56
2023-01-19T08:38:24.772Z,-1.50
2023-01-19T08:42:46.405Z,-1.45
2023-01-19T08:45:14.673Z,-1.44
2023-01-19T08:47:42.820Z,-1.34
2023-01-19T08:50:12.366Z,-1.27
2023-01-19T08:52:40.772Z,-1.23
2023-01-19T08:55:11.227Z,-0.96
2023-01-19T08:57:42.810Z,-0.51
2023-01-19T09:00:13.716Z,-0.42
2023-01-19T09:02:41.996Z,-0.43
2023-01-19T09:05:10.285Z,-0.47
2023-01-19T09:07:38.230Z,-0.08
2023-01-19T09:10:07.644Z,-0.23
2023-01-19T09:12:35.901Z,0.42
2023-01-19T09:15:07.206Z,1.17
2023-01-19T09:18:16.136Z,1.69
2023-01-19T09:20:48.039Z,2.11
2023-01-19T09:23:17.861Z,2.30
2023-01-19T09:25:47.921Z,2.31
2023-01-19T09:28:18.705Z,1.99
2023-01-19T09:30:47.226Z,1.84
2023-01-19T09:33:17.232Z,1.56
2023-01-19T09:35:48.456Z,1.63
2023-01-19T09:38:17.706Z,1.25
2023-01-19T09:40:51.711Z,1.41
2023-01-19T09:43:33.008Z,1.40
2023-01-19T09:46:04.798Z,1.38
2023-01-19T09:48:45.675Z,1.59
2023-01-19T09:51:18.595Z,1.96
2023-01-19T09:53:55.955Z,2.14
2023-01-19T09:56:25.180Z,1.97
2023-01-19T09:58:55.365Z,2.30
2023-01-19T10:01:47.746Z,2.56
2023-01-19T10:04:31.041Z,2.96
2023-01-19T10:07:09.965Z,4.02
2023-01-19T10:09:50.070Z,4.94
2023-01-19T10:12:29.839Z,5.71
2023-01-19T10:15:05.029Z,5.54
2023-01-19T10:17:44.535Z,4.74
2023-01-19T10:20:19.185Z,4.01
2023-01-19T10:22:50.776Z,3.85
2023-01-19T10:25:23.886Z,3.72
2023-01-19T10:27:54.813Z,3.10
2023-01-19T10:30:26.892Z,2.66
2023-01-19T10:32:54.931Z,2.55
2023-01-19T10:35:25.338Z,2.49
2023-01-19T10:37:58.535Z,2.23
2023-01-19T10:40:29.984Z,2.24
2023-01-19T10:42:58.874Z,2.25
2023-01-19T10:45:30.326Z,2.11
2023-01-19T10:48:01.075Z,2.05
2023-01-19T10:50:31.513Z,1.77
2023-01-19T10:53:03.808Z,1.84
2023-01-19T10:55:38.208Z,1.89
2023-01-19T10:58:06.935Z,1.71
2023-01-19T11:00:38.141Z,1.67
2023-01-19T11:03:07.140Z,2.02
2023-01-19T11:05:36.803Z,2.25
2023-01-19T11:08:23.523Z,2.37
2023-01-19T11:10:54.972Z,2.56
2023-01-19T11:13:22.958Z,2.57
2023-01-19T11:15:57.581Z,2.42
2023-01-19T11:18:30.619Z,2.28
2023-01-19T11:21:03.286Z,2.21
2023-01-19T11:23:43.038Z,2.22
2023-01-19T11:26:16.919Z,2.14
2023-01-19T11:28:51.328Z,2.14
2023-01-19T11:31:31.458Z,2.00
2023-01-19T11:34:00.997Z,1.88
2023-01-19T11:36:31.401Z,1.84
2023-01-19T11:39:04.070Z,1.77
2023-01-19T11:41:35.622Z,1.67
2023-01-19T11:44:16.023Z,1.72
2023-01-19T11:46:49.882Z,1.78
2023-01-19T11:49:23.085Z,1.88
2023-01-19T11:51:58.104Z,1.80
2023-01-19T11:54:32.598Z,1.92
2023-01-19T11:57:02.969Z,1.86
2023-01-19T11:59:31.083Z,1.93
2023-01-19T12:02:03.526Z,1.89
2023-01-19T12:04:35.565Z,1.86
2023-01-19T12:07:09.011Z,1.97
2023-01-19T12:09:43.537Z,1.88
2023-01-19T12:12:18.382Z,1.94
2023-01-19T12:14:56.876Z,1.89
2023-01-19T12:17:28.132Z,1.92
2023-01-19T12:20:04.727Z,2.02
2023-01-19T12:22:40.263Z,2.11
2023-01-19T12:25:21.746Z,2.07
2023-01-19T12:27:52.015Z,2.09
2023-01-19T12:30:23.290Z,2.11
2023-01-19T12:33:03.749Z,2.07
2023-01-19T12:36:04.080Z,2.19
2023-01-19T12:38:40.278Z,2.22
2023-01-19T12:41:22.144Z,2.39
2023-01-19T12:44:06.448Z,2.39
2023-01-19T12:46:35.057Z,2.55
2023-01-19T12:49:08.093Z,2.45
2023-01-19T12:51:36.257Z,2.47
2023-01-19T12:54:08.827Z,2.50
2023-01-19T12:56:39.694Z,2.47
2023-01-19T12:59:08.086Z,2.54
2023-01-19T13:01:36.126Z,2.58
2023-01-19T13:04:09.212Z,2.59
2023-01-19T13:07:10.571Z,2.48
2023-01-19T13:09:40.275Z,2.54
2023-01-19T13:12:21.204Z,2.44
2023-01-19T13:14:50.919Z,2.41
2023-01-19T13:17:35.363Z,2.30
2023-01-19T13:20:24.131Z,2.30
2023-01-19T13:23:18.100Z,2.31
2023-01-19T13:25:50.804Z,2.32
2023-01-19T13:28:36.506Z,2.19
2023-01-19T13:31:05.367Z,2.22
2023-01-19T13:33:41.172Z,2.18
2023-01-19T13:36:23.551Z,2.24
2023-01-19T13:38:53.368Z,2.15
2023-01-19T13:43:48.297Z,2.28
2023-01-19T13:46:20.093Z,2.38
2023-01-19T13:48:56.810Z,2.32
2023-01-19T13:51:25.081Z,2.35
2023-01-19T13:53:57.553Z,2.41
2023-01-19T13:56:28.898Z,2.30
2023-01-19T13:59:07.166Z,2.31
2023-01-19T14:01:35.365Z,2.23
2023-01-19T14:04:03.608Z,2.27
2023-01-19T14:06:37.680Z,2.17
2023-01-19T14:09:19.921Z,2.31
2023-01-19T14:12:07.405Z,2.36
2023-01-19T14:14:37.047Z,2.38
2023-01-19T14:17:05.538Z,2.40
2023-01-19T14:19:49.467Z,2.45
2023-01-19T14:22:17.495Z,2.50
2023-01-19T14:24:45.563Z,2.35
2023-01-19T14:27:24.221Z,2.33
2023-01-19T14:29:55.029Z,2.30
2023-01-19T14:32:24.357Z,2.32
2023-01-19T14:34:54.241Z,2.29
2023-01-19T14:37:25.402Z,2.23
2023-01-19T14:39:59.257Z,2.21
2023-01-19T14:42:32.112Z,2.22
2023-01-19T14:45:04.182Z,2.08
2023-01-19T14:47:36.724Z,2.08
2023-01-19T14:50:19.737Z,2.04
2023-01-19T14:52:53.484Z,1.78
2023-01-19T14:55:27.823Z,1.64
2023-01-19T14:57:58.061Z,1.56
2023-01-19T15:00:28.122Z,1.49
2023-01-19T15:02:58.653Z,1.43
2023-01-19T15:05:26.670Z,1.55
2023-01-19T15:07:57.326Z,1.39
2023-01-19T15:10:26.803Z,1.37
2023-01-19T15:12:57.642Z,1.28
2023-01-19T15:15:31.188Z,1.16
2023-01-19T15:18:00.103Z,1.09
2023-01-19T15:20:30.233Z,0.97
2023-01-19T15:22:58.361Z,0.94
2023-01-19T15:25:26.935Z,0.78
2023-01-19T15:27:59.502Z,0.74
2023-01-19T15:30:30.959Z,0.74
2023-01-19T15:32:59.398Z,0.53
2023-01-19T15:35:27.416Z,0.56
2023-01-19T15:37:55.607Z,0.51
2023-01-19T15:40:23.589Z,0.45
2023-01-19T15:42:51.859Z,0.42
2023-01-19T15:45:35.007Z,0.36
2023-01-19T15:48:06.126Z,0.32
2023-01-19T15:50:35.007Z,0.26
2023-01-19T15:53:03.341Z,0.25
2023-01-19T15:55:31.421Z,0.18
2023-01-19T15:58:01.773Z,0.17
2023-01-19T16:00:31.026Z,-0.07
2023-01-19T16:03:01.787Z,0.04
2023-01-19T16:05:42.011Z,0.01
2023-01-19T16:08:11.947Z,-0.02
2023-01-19T16:10:40.441Z,-0.01
2023-01-19T16:13:09.522Z,-0.02
2023-01-19T16:15:38.690Z,0.02
2023-01-19T16:18:11.244Z,0.04
2023-01-19T16:20:39.243Z,0.01
2023-01-19T16:23:14.883Z,0.03
2023-01-19T16:25:43.444Z,0.05
2023-01-19T16:28:12.031Z,0.07
2023-01-19T16:30:40.238Z,0.08
2023-01-19T16:33:13.952Z,0.08
2023-01-19T16:35:42.027Z,0.11
2023-01-19T16:38:12.689Z,0.13
2023-01-19T16:40:40.717Z,0.15
2023-01-19T16:43:11.563Z,0.15
2023-01-19T16:45:57.570Z,0.17
2023-01-19T16:48:28.321Z,0.16
2023-01-19T16:51:01.584Z,0.17
2023-01-19T16:53:30.144Z,0.19
2023-01-19T16:55:58.208Z,0.18
2023-01-19T16:58:26.636Z,0.19
2023-01-19T17:00:54.728Z,0.20
2023-01-19T17:03:22.979Z,0.22
2023-01-19T17:05:55.214Z,0.20
2023-01-19T17:08:23.585Z,0.22
2023-01-19T17:10:51.983Z,0.23
2023-01-19T17:13:20.361Z,0.23
2023-01-19T17:15:48.880Z,0.24
2023-01-19T17:18:17.178Z,0.25
2023-01-19T17:20:45.167Z,0.25
2023-01-19T17:23:14.798Z,0.26
2023-01-19T17:25:42.894Z,0.27
2023-01-19T17:28:11.152Z,0.26
2023-01-19T17:30:39.403Z,0.26
2023-01-19T17:33:09.833Z,0.27
2023-01-19T17:35:38.110Z,0.29
2023-01-19T17:38:06.140Z,0.28
2023-01-19T17:40:35.892Z,0.26
2023-01-19T17:43:03.940Z,0.26
2023-01-19T17:45:32.227Z,0.25
2023-01-19T17:48:01.153Z,0.25
2023-01-19T17:50:30.285Z,0.23
2023-01-19T17:52:58.414Z,0.19
2023-01-19T17:55:26.965Z,0.22
2023-01-19T17:57:57.768Z,0.20
2023-01-19T18:00:28.210Z,0.20
2023-01-19T18:02:56.627Z,0.18
2023-01-19T18:05:26.076Z,0.18
2023-01-19T18:07:56.884Z,0.16
2023-01-19T18:10:25.109Z,0.14
2023-01-19T18:12:53.337Z,0.16
2023-01-19T18:15:23.264Z,0.15
2023-01-19T18:17:51.490Z,0.13
2023-01-19T18:20:19.742Z,0.15
2023-01-19T18:22:47.793Z,0.16
2023-01-19T18:25:16.102Z,0.15
2023-01-19T18:27:44.152Z,0.16
2023-01-19T18:30:13.314Z,0.14
2023-01-19T18:32:43.081Z,0.16
2023-01-19T18:35:11.396Z,0.15
2023-01-19T18:37:41.789Z,0.15
2023-01-19T18:40:12.251Z,0.12
2023-01-19T18:45:00.526Z,0.07
2023-01-19T18:47:28.819Z,0.06
2023-01-19T18:49:57.181Z,0.06
2023-01-19T18:52:25.449Z,0.07
2023-01-19T18:54:53.853Z,0.07
2023-01-19T18:57:22.008Z,0.07
2023-01-19T18:59:50.353Z,0.07
2023-01-19T19:02:20.114Z,0.07
2023-01-19T19:04:48.316Z,0.05
2023-01-19T19:07:16.519Z,0.05
2023-01-19T19:09:47.184Z,0.03
2023-01-19T19:12:17.583Z,0.03
2023-01-19T19:14:45.875Z,0.05
2023-01-19T19:17:14.134Z,0.04
2023-01-19T19:19:43.610Z,0.00
2023-01-19T19:22:12.003Z,-0.07
2023-01-19T19:24:40.304Z,-0.10
2023-01-19T19:27:14.298Z,-0.16
2023-01-19T19:29:48.786Z,-0.22
2023-01-19T19:32:20.636Z,-0.27
2023-01-19T19:34:52.745Z,-0.31
2023-01-19T19:37:21.427Z,-0.37
2023-01-19T19:39:49.947Z,-0.41
2023-01-19T19:42:20.410Z,-0.43
2023-01-19T19:44:48.726Z,-0.49
2023-01-19T19:47:17.230Z,-0.49
2023-01-19T19:49:45.411Z,-0.55
2023-01-19T19:52:15.563Z,-0.62
2023-01-19T19:54:49.108Z,-0.69
2023-01-19T19:57:17.645Z,-0.71
2023-01-19T19:59:45.921Z,-0.72
2023-01-19T20:02:14.500Z,-0.75
2023-01-19T20:04:43.095Z,-0.75
2023-01-19T20:07:11.737Z,-0.73
2023-01-19T20:09:45.320Z,-0.70
2023-01-19T20:12:14.142Z,-0.67
2023-01-19T20:14:45.263Z,-0.66
2023-01-19T20:17:14.278Z,-0.68
2023-01-19T20:19:46.411Z,-0.69
2023-01-19T20:22:17.432Z,-0.70
2023-01-19T20:24:47.390Z,-0.69
2023-01-19T20:27:16.053Z,-0.71
2023-01-19T20:29:44.112Z,-0.71
2023-01-19T20:32:12.682Z,-0.73
2023-01-19T20:34:43.246Z,-0.72
2023-01-19T20:37:12.044Z,-0.72
2023-01-19T20:39:40.167Z,-0.71
2023-01-19T20:42:12.144Z,-0.71
2023-01-19T20:44:42.892Z,-0.72
2023-01-19T20:47:11.695Z,-0.70
2023-01-19T20:49:42.080Z,-0.71
2023-01-19T20:52:12.639Z,-0.72
2023-01-19T20:54:40.785Z,-0.72
2023-01-19T20:57:10.540Z,-0.74
2023-01-19T20:59:40.843Z,-0.78
2023-01-19T21:02:14.390Z,-0.79
2023-01-19T21:04:42.665Z,-0.82
2023-01-19T21:07:13.359Z,-0.83
2023-01-19T21:09:44.260Z,-0.85
2023-01-19T21:12:15.305Z,-0.87
2023-01-19T21:14:45.958Z,-0.89
2023-01-19T21:17:14.279Z,-0.93
2023-01-19T21:19:42.540Z,-1.06
2023-01-19T21:22:10.803Z,-1.02
2023-01-19T21:24:44.387Z,-1.11
2023-01-19T21:27:14.648Z,-1.17
2023-01-19T21:29:42.615Z,-1.23
2023-01-19T21:32:10.669Z,-1.28
2023-01-19T21:34:40.923Z,-1.38
2023-01-19T21:37:09.086Z,-1.49
2023-01-19T21:39:43.075Z,-1.58
2023-01-19T21:42:11.057Z,-1.68
2023-01-19T21:44:40.841Z,-1.76
2023-01-19T21:47:11.748Z,-1.99
2023-01-19T21:49:41.647Z,-2.00
2023-01-19T21:52:10.051Z,-2.06
2023-01-19T21:54:38.315Z,-2.16
2023-01-19T21:57:06.412Z,-2.21
2023-01-19T21:59:35.325Z,-2.24
2023-01-19T22:02:08.052Z,-2.26
2023-01-19T22:04:36.645Z,-2.18
2023-01-19T22:07:04.737Z,-2.16
2023-01-19T22:09:35.028Z,-2.03
2023-01-19T22:12:04.237Z,-2.01
2023-01-19T22:14:32.606Z,-1.96
2023-01-19T22:17:00.944Z,-1.94
2023-01-19T22:19:30.776Z,-1.91
2023-01-19T22:22:01.619Z,-1.88
2023-01-19T22:24:29.883Z,-1.85
2023-01-19T22:26:57.843Z,-1.88
2023-01-19T22:29:26.479Z,-1.91
2023-01-19T22:31:54.721Z,-1.93
2023-01-19T22:34:28.337Z,-1.98
2023-01-19T22:36:57.656Z,-2.02
2023-01-19T22:39:28.470Z,-2.10
2023-01-19T22:41:58.754Z,-2.25
2023-01-19T22:44:29.306Z,-2.36
2023-01-19T22:46:57.448Z,-2.57
2023-01-19T22:49:25.892Z,-2.46
2023-01-19T22:51:55.828Z,-2.50
2023-01-19T22:54:25.510Z,-2.55
2023-01-19T22:56:53.632Z,-2.54
2023-01-19T22:59:21.580Z,-2.51
2023-01-19T23:01:50.649Z,-2.48
2023-01-19T23:04:18.666Z,-2.60
2023-01-19T23:06:50.517Z,-2.71
2023-01-19T23:09:19.589Z,-2.82
2023-01-19T23:11:50.855Z,-3.02
2023-01-19T23:14:22.983Z,-2.91
2023-01-19T23:16:51.170Z,-2.99
2023-01-19T23:19:19.583Z,-3.10
2023-01-19T23:21:52.512Z,-3.21
2023-01-19T23:24:20.452Z,-3.29
2023-01-19T23:26:51.360Z,-3.38
2023-01-19T23:29:19.930Z,-3.42
2023-01-19T23:31:53.574Z,-3.51
2023-01-19T23:34:21.506Z,-3.50
2023-01-19T23:36:49.577Z,-3.59
2023-01-19T23:39:22.994Z,-3.60
2023-01-19T23:41:54.671Z,-3.64
2023-01-19T23:46:03.949Z,-3.73
2023-01-19T23:48:35.157Z,-3.64
2023-01-19T23:51:07.144Z,-3.80
2023-01-19T23:53:35.533Z,-3.75
2023-01-19T23:56:10.397Z,-3.73
2023-01-19T23:58:38.474Z,-3.73
